Time;durP1;ratioP1;P1;durP2;ratioP2;P2;SDS_P1;SDS_P2;PMS_P1;PMS_P2;Temp;Humidity;BMP_temperature;BMP_pressure;BME280_temperature;BME280_humidity;BME280_pressure;Samples;Min_cycle;Max_cycle;Signal;HPM_P1;HPM_P2
2022/10/12 00:00:22;;;;;;;25.75;23.05;;;17.40;99.90;;;;;;4954515;28;20377;-66
2022/10/12 00:02:47;;;;;;;23.05;20.65;;;17.40;99.90;;;;;;4958212;29;20410;-69
2022/10/12 00:05:13;;;;;;;24.88;22.38;;;17.40;99.90;;;;;;4957980;29;20019;-66
2022/10/12 00:07:39;;;;;;;22.95;20.55;;;17.40;99.90;;;;;;4957845;29;20027;-70
2022/10/12 00:10:05;;;;;;;23.05;20.55;;;17.40;99.90;;;;;;4957996;29;20035;-64
2022/10/12 00:12:30;;;;;;;22.80;20.48;;;17.40;99.90;;;;;;4958065;29;20366;-64
2022/10/12 00:14:56;;;;;;;25.38;22.67;;;17.40;99.90;;;;;;4957567;29;20082;-67
2022/10/12 00:17:21;;;;;;;28.48;25.42;;;17.30;99.90;;;;;;4957819;29;20588;-66
2022/10/12 00:19:49;;;;;;;30.42;27.25;;;17.30;99.90;;;;;;4957726;29;20027;-69
2022/10/12 00:22:15;;;;;;;28.90;25.27;;;17.20;99.90;;;;;;4957603;29;20042;-64
2022/10/12 00:24:40;;;;;;;27.30;24.45;;;17.20;99.90;;;;;;4957595;29;20023;-62
2022/10/12 00:27:06;;;;;;;27.77;25.00;;;17.20;99.90;;;;;;4957873;29;20038;-67
2022/10/12 00:29:31;;;;;;;27.83;24.92;;;17.20;99.90;;;;;;4957701;29;20027;-67
2022/10/12 00:31:57;;;;;;;27.60;24.45;;;17.30;99.90;;;;;;4957279;28;20075;-68
2022/10/12 00:34:23;;;;;;;28.17;25.17;;;17.30;99.90;;;;;;4957495;28;20043;-67
2022/10/12 00:36:48;;;;;;;28.15;25.33;;;17.30;99.90;;;;;;4957502;29;20542;-63
2022/10/12 00:39:14;;;;;;;31.15;27.75;;;17.30;99.90;;;;;;4957249;29;20023;-69
2022/10/12 00:41:42;;;;;;;31.02;27.90;;;17.30;99.90;;;;;;4957401;29;20031;-65
2022/10/12 00:44:40;;;;;;;29.58;26.38;;;17.30;99.90;;;;;;4957086;29;20031;-63
2022/10/12 00:47:25;;;;;;;30.98;27.70;;;17.20;99.90;;;;;;4957306;29;20024;-64
2022/10/12 00:50:09;;;;;;;30.27;27.02;;;17.10;99.90;;;;;;4957052;29;20031;-66
2022/10/12 00:52:51;;;;;;;30.13;26.88;;;17.10;99.90;;;;;;4957386;29;20039;-64
2022/10/12 00:55:19;;;;;;;26.40;23.85;;;17.00;99.90;;;;;;4957108;29;20070;-66
2022/10/12 00:57:47;;;;;;;23.98;21.67;;;17.10;99.90;;;;;;4957173;29;20098;-65
2022/10/12 01:00:13;;;;;;;27.38;24.48;;;17.00;99.90;;;;;;4956662;29;20023;-66
2022/10/12 01:02:41;;;;;;;27.15;24.35;;;17.10;99.90;;;;;;4957134;29;20046;-64
2022/10/12 01:05:08;;;;;;;24.27;21.88;;;17.10;99.90;;;;;;4956914;29;20019;-68
2022/10/12 01:07:34;;;;;;;24.45;22.05;;;17.10;99.90;;;;;;4957001;29;20097;-66
2022/10/12 01:10:00;;;;;;;23.20;21.00;;;17.20;99.90;;;;;;4956905;29;20425;-64
2022/10/12 01:12:27;;;;;;;24.48;22.08;;;17.20;99.90;;;;;;4955973;28;20028;-65
2022/10/12 01:14:52;;;;;;;24.17;21.67;;;17.20;99.90;;;;;;4956531;29;20505;-66
2022/10/12 01:17:36;;;;;;;23.95;21.45;;;17.20;99.90;;;;;;4956911;29;20031;-68
2022/10/12 01:20:20;;;;;;;;;;;17.20;99.90;;;;;;4957102;29;20030;-65
2022/10/12 01:23:07;;;;;;;25.50;22.88;;;17.20;99.90;;;;;;4956801;29;19914;-66
2022/10/12 01:25:57;;;;;;;22.38;20.10;;;17.10;99.90;;;;;;4956486;29;20110;-61
2022/10/12 01:28:41;;;;;;;21.83;19.60;;;17.10;99.90;;;;;;4956301;29;20441;-65
2022/10/12 01:31:43;;;;;;;22.15;19.88;;;17.10;99.90;;;;;;4956229;28;20134;-64
2022/10/12 01:34:14;;;;;;;19.15;17.38;;;17.20;99.90;;;;;;4891251;29;20414;-61
2022/10/12 01:36:44;;;;;;;21.13;19.10;;;17.20;99.90;;;;;;4956425;29;20019;-68
2022/10/12 01:39:28;;;;;;;21.02;18.70;;;17.20;99.90;;;;;;4956257;29;20058;-66
2022/10/12 01:41:57;;;;;;;20.05;17.95;;;17.20;99.90;;;;;;4956011;29;20102;-69
2022/10/12 01:44:25;;;;;;;20.20;18.20;;;17.30;99.90;;;;;;4956118;29;20035;-67
2022/10/12 01:46:55;;;;;;;21.55;19.38;;;17.30;99.90;;;;;;4956151;29;20118;-63
2022/10/12 01:49:24;;;;;;;22.13;19.75;;;17.30;99.90;;;;;;4956062;29;20031;-66
2022/10/12 01:52:30;;;;;;;21.23;19.05;;;17.30;99.90;;;;;;4955937;29;20031;-63
2022/10/12 01:55:18;;;;;;;21.25;19.17;;;17.30;99.90;;;;;;4878354;29;20039;-66
2022/10/12 01:58:11;;;;;;;20.25;18.23;;;17.30;99.90;;;;;;4878118;29;20558;-66
2022/10/12 02:00:54;;;;;;;21.17;19.08;;;17.20;99.90;;;;;;4941538;29;20031;-67
2022/10/12 02:03:56;;;;;;;19.52;17.63;;;17.20;99.90;;;;;;4955734;29;20027;-69
2022/10/12 02:06:26;;;;;;;19.65;17.55;;;17.20;99.90;;;;;;4913342;29;20115;-67
2022/10/12 02:09:01;;;;;;;19.77;17.95;;;17.20;99.90;;;;;;4955699;29;20027;-67
2022/10/12 02:11:27;;;;;;;18.80;17.00;;;17.20;99.90;;;;;;4955577;29;20082;-62
2022/10/12 02:14:13;;;;;;;18.30;16.58;;;17.20;99.90;;;;;;4955857;29;20031;-64
2022/10/12 02:16:47;;;;;;;18.67;16.77;;;17.20;99.90;;;;;;4955645;29;20028;-65
2022/10/12 02:19:17;;;;;;;18.27;16.35;;;17.20;99.90;;;;;;4955797;29;20094;-66
2022/10/12 02:21:45;;;;;;;18.70;16.80;;;17.20;99.90;;;;;;4955693;29;20034;-66
2022/10/12 02:24:12;;;;;;;18.65;16.73;;;17.20;99.90;;;;;;4955514;28;20035;-67
2022/10/12 02:26:43;;;;;;;20.15;18.15;;;17.20;99.90;;;;;;4955526;29;20030;-65
2022/10/12 02:29:13;;;;;;;19.67;17.65;;;17.20;99.90;;;;;;4955580;29;20058;-67
2022/10/12 02:31:52;;;;;;;22.50;20.15;;;17.20;99.90;;;;;;4955273;29;20055;-64
2022/10/12 02:34:22;;;;;;;21.92;19.73;;;17.20;99.90;;;;;;4955358;28;20023;-63
2022/10/12 02:36:51;;;;;;;23.80;20.88;;;17.10;99.90;;;;;;4955410;29;20122;-64
2022/10/12 02:39:24;;;;;;;25.33;22.60;;;17.20;99.90;;;;;;4955265;29;20447;-67
2022/10/12 02:41:53;;;;;;;;;;;17.10;99.90;;;;;;4955508;29;20046;-70
2022/10/12 02:44:27;;;;;;;21.52;19.33;;;17.10;99.90;;;;;;4955295;29;20396;-67
2022/10/12 02:46:56;;;;;;;22.25;19.95;;;17.10;99.90;;;;;;4955373;29;20027;-67
2022/10/12 02:49:25;;;;;;;21.10;19.00;;;17.10;99.90;;;;;;4955298;29;20024;-64
2022/10/12 02:51:52;;;;;;;20.73;18.48;;;17.10;99.90;;;;;;4955145;29;20030;-64
2022/10/12 02:54:18;;;;;;;23.20;20.70;;;17.10;99.90;;;;;;4955019;29;20020;-66
2022/10/12 02:56:46;;;;;;;20.33;18.33;;;17.10;99.90;;;;;;4955398;29;20023;-62
2022/10/12 02:59:16;;;;;;;20.42;18.52;;;17.10;99.90;;;;;;4955269;29;20024;-62
2022/10/12 03:01:42;;;;;;;20.15;18.15;;;17.10;99.90;;;;;;4955239;29;20028;-69
2022/10/12 03:04:08;;;;;;;18.90;17.15;;;17.10;99.90;;;;;;4955005;29;20457;-66
2022/10/12 03:06:34;;;;;;;22.25;20.05;;;17.10;99.90;;;;;;4955040;29;20057;-64
2022/10/12 03:09:00;;;;;;;21.05;18.85;;;17.10;99.90;;;;;;4955173;29;20059;-69
2022/10/12 03:11:26;;;;;;;20.50;18.40;;;17.10;99.90;;;;;;4955122;29;20399;-63
2022/10/12 03:13:55;;;;;;;21.85;19.70;;;17.20;99.90;;;;;;4954944;29;20557;-61
2022/10/12 03:16:22;;;;;;;21.15;18.88;;;17.10;99.90;;;;;;4954962;29;20114;-63
2022/10/12 03:18:47;;;;;;;21.20;19.10;;;17.10;99.90;;;;;;4954993;29;20030;-65
2022/10/12 03:21:13;;;;;;;19.83;18.05;;;17.10;99.90;;;;;;4954945;29;20444;-65
2022/10/12 03:23:39;;;;;;;19.85;17.98;;;17.00;99.90;;;;;;4954908;29;20039;-64
2022/10/12 03:26:05;;;;;;;17.17;15.57;;;17.10;99.90;;;;;;4955023;29;20462;-69
2022/10/12 03:28:31;;;;;;;19.10;17.20;;;17.10;99.90;;;;;;4954871;29;20038;-67
2022/10/12 03:30:58;;;;;;;18.23;16.42;;;17.10;99.90;;;;;;4954751;28;20074;-67
2022/10/12 03:33:24;;;;;;;17.17;15.55;;;17.10;99.90;;;;;;4955055;28;20038;-66
2022/10/12 03:35:50;;;;;;;18.08;16.23;;;17.20;99.90;;;;;;4955862;28;20027;-69
2022/10/12 03:38:16;;;;;;;18.67;16.88;;;17.20;99.90;;;;;;4958257;29;20517;-67
2022/10/12 03:40:42;;;;;;;17.20;15.50;;;17.10;99.90;;;;;;4958564;29;20470;-66
2022/10/12 03:43:08;;;;;;;16.20;14.70;;;17.10;99.90;;;;;;4958398;29;20110;-66
2022/10/12 03:45:34;;;;;;;19.27;16.38;;;17.20;99.90;;;;;;4958259;29;20534;-68
2022/10/12 03:48:00;;;;;;;18.05;16.25;;;17.20;99.90;;;;;;4958568;29;20374;-68
2022/10/12 03:50:27;;;;;;;19.23;17.25;;;17.10;99.90;;;;;;4958257;29;20029;-68
2022/10/12 03:52:52;;;;;;;16.48;14.88;;;17.20;99.90;;;;;;4957958;29;20027;-67
2022/10/12 03:55:18;;;;;;;17.85;16.15;;;17.10;99.90;;;;;;4958283;29;20422;-67
2022/10/12 03:57:44;;;;;;;17.05;15.25;;;17.20;99.90;;;;;;4958178;29;20474;-65
2022/10/12 04:00:11;;;;;;;15.70;14.15;;;17.10;99.90;;;;;;4958029;29;20074;-66
2022/10/12 04:02:38;;;;;;;20.02;18.02;;;17.10;99.90;;;;;;4957980;29;20042;-63
2022/10/12 04:05:04;;;;;;;18.40;16.60;;;17.10;99.90;;;;;;4958184;29;20082;-69
2022/10/12 04:07:30;;;;;;;18.27;16.27;;;17.10;99.90;;;;;;4957730;29;20027;-68
2022/10/12 04:09:55;;;;;;;18.58;16.67;;;17.10;99.90;;;;;;4957895;29;20082;-64
2022/10/12 04:12:21;;;;;;;18.55;16.75;;;17.10;99.90;;;;;;4957922;29;20086;-60
2022/10/12 04:14:46;;;;;;;22.92;20.55;;;17.10;99.90;;;;;;4957737;29;20031;-63
2022/10/12 04:17:15;;;;;;;22.63;20.33;;;17.00;99.90;;;;;;4957716;29;20027;-66
2022/10/12 04:19:41;;;;;;;24.08;21.77;;;17.00;99.90;;;;;;4958062;29;20024;-66
2022/10/12 04:22:06;;;;;;;20.23;18.23;;;16.90;99.90;;;;;;4957463;29;20028;-64
2022/10/12 04:24:32;;;;;;;24.35;21.77;;;16.90;99.90;;;;;;4957607;29;20027;-67
2022/10/12 04:26:58;;;;;;;27.08;24.25;;;16.90;99.90;;;;;;4957789;29;20030;-65
2022/10/12 04:29:24;;;;;;;24.33;21.73;;;16.90;99.90;;;;;;4957562;29;20520;-63
2022/10/12 04:31:49;;;;;;;26.27;21.85;;;16.80;99.90;;;;;;4957291;28;20051;-64
2022/10/12 04:34:15;;;;;;;23.23;20.83;;;16.80;99.90;;;;;;4957443;28;20098;-63
2022/10/12 04:36:40;;;;;;;22.38;20.17;;;16.90;99.90;;;;;;4957327;29;20537;-69
2022/10/12 04:39:06;;;;;;;21.15;18.95;;;16.90;99.90;;;;;;4957307;29;20023;-66
2022/10/12 04:41:32;;;;;;;19.65;17.75;;;16.90;99.90;;;;;;4957360;29;20028;-66
2022/10/12 04:43:58;;;;;;;22.80;20.40;;;16.90;99.90;;;;;;4957372;29;20513;-67
2022/10/12 04:46:24;;;;;;;23.23;20.83;;;17.00;99.90;;;;;;4957149;28;20090;-66
2022/10/12 04:48:49;;;;;;;45.83;40.53;;;16.90;99.90;;;;;;4956091;29;20082;-63
2022/10/12 04:51:15;;;;;;;42.15;36.80;;;16.90;99.90;;;;;;4957053;29;20031;-69
2022/10/12 04:53:41;;;;;;;38.67;34.05;;;16.80;99.90;;;;;;4940149;29;20027;-64
2022/10/12 04:56:07;;;;;;;38.45;33.97;;;16.80;99.90;;;;;;4956963;29;20031;-66
2022/10/12 04:58:32;;;;;;;46.53;38.28;;;16.80;99.90;;;;;;4955129;29;20430;-64
2022/10/12 05:00:58;;;;;;;48.75;41.08;;;16.80;99.90;;;;;;4954968;29;20015;-61
2022/10/12 05:03:24;;;;;;;50.65;41.05;;;16.80;99.90;;;;;;4956640;29;20035;-65
2022/10/12 05:05:50;;;;;;;44.17;37.50;;;16.80;99.90;;;;;;4956531;29;20034;-64
2022/10/12 05:08:16;;;;;;;39.63;34.25;;;16.80;99.90;;;;;;4956512;29;20023;-65
2022/10/12 05:10:42;;;;;;;37.30;32.80;;;16.80;99.90;;;;;;4956859;29;20029;-67
2022/10/12 05:13:08;;;;;;;44.83;36.58;;;16.80;99.90;;;;;;4956816;29;20489;-67
2022/10/12 05:15:33;;;;;;;43.65;36.70;;;16.80;99.90;;;;;;4956811;29;20023;-67
2022/10/12 05:17:59;;;;;;;37.83;32.60;;;16.80;99.90;;;;;;4956701;29;20074;-68
2022/10/12 05:20:25;;;;;;;36.08;32.03;;;16.80;99.90;;;;;;4956389;29;20028;-68
2022/10/12 05:22:50;;;;;;;31.95;28.50;;;16.80;99.90;;;;;;4956567;29;20028;-63
2022/10/12 05:25:18;;;;;;;30.67;27.15;;;16.90;99.90;;;;;;4956592;29;20027;-65
2022/10/12 05:27:43;;;;;;;37.45;31.00;;;16.90;99.90;;;;;;4956398;29;20027;-66
2022/10/12 05:30:10;;;;;;;34.00;29.50;;;17.00;99.90;;;;;;4954970;29;20391;-66
2022/10/12 05:32:36;;;;;;;42.22;33.65;;;16.90;99.90;;;;;;4955270;29;20474;-63
2022/10/12 05:35:02;;;;;;;41.47;33.50;;;16.90;99.90;;;;;;4955527;28;20023;-64
2022/10/12 05:37:28;;;;;;;43.38;34.95;;;16.90;99.90;;;;;;4950684;29;20050;-64
2022/10/12 05:39:53;;;;;;;37.42;31.60;;;16.90;99.90;;;;;;4947966;29;20023;-68
2022/10/12 05:42:19;;;;;;;33.20;28.83;;;16.90;99.90;;;;;;4952298;29;20027;-64
2022/10/12 05:44:45;;;;;;;32.22;27.25;;;16.90;99.90;;;;;;4955751;29;20024;-67
2022/10/12 05:47:10;;;;;;;31.25;27.85;;;17.00;99.90;;;;;;4955878;29;20077;-64
2022/10/12 05:49:36;;;;;;;26.30;23.23;;;17.00;99.90;;;;;;4947803;29;20019;-67
2022/10/12 05:52:02;;;;;;;26.67;23.73;;;17.00;99.90;;;;;;4955870;29;20030;-62
2022/10/12 05:54:27;;;;;;;32.17;27.30;;;17.00;99.90;;;;;;4955339;29;20015;-65
2022/10/12 05:56:53;;;;;;;27.75;24.83;;;17.10;99.90;;;;;;4954988;29;20426;-63
2022/10/12 05:59:19;;;;;;;30.50;26.77;;;17.10;99.90;;;;;;4944830;28;20042;-66
2022/10/12 06:01:44;;;;;;;32.05;26.48;;;17.10;99.90;;;;;;4954097;29;20540;-64
2022/10/12 06:04:11;;;;;;;31.85;28.17;;;17.20;99.90;;;;;;4956177;29;20374;-64
2022/10/12 06:06:38;;;;;;;29.33;26.23;;;17.20;99.90;;;;;;4954569;28;20039;-65
2022/10/12 06:09:03;;;;;;;30.75;27.45;;;17.20;99.90;;;;;;4946801;28;20031;-67
2022/10/12 06:11:29;;;;;;;28.52;25.50;;;17.20;99.90;;;;;;4952883;29;20035;-64
2022/10/12 06:13:55;;;;;;;28.13;25.15;;;17.20;99.90;;;;;;4953446;29;20062;-64
2022/10/12 06:16:21;;;;;;;27.15;24.17;;;17.20;99.90;;;;;;4948771;29;20518;-67
2022/10/12 06:18:47;;;;;;;27.10;24.23;;;17.30;99.90;;;;;;4955687;29;20051;-64
2022/10/12 06:21:13;;;;;;;25.70;23.05;;;17.40;99.90;;;;;;4954898;29;20055;-66
2022/10/12 06:23:39;;;;;;;30.90;27.60;;;17.40;99.90;;;;;;4952825;29;20058;-65
2022/10/12 06:26:04;;;;;;;29.48;26.48;;;17.40;99.90;;;;;;4952833;29;20081;-66
2022/10/12 06:28:30;;;;;;;28.00;25.10;;;17.30;99.90;;;;;;4955128;29;20035;-66
2022/10/12 06:30:58;;;;;;;27.30;24.50;;;17.40;99.90;;;;;;4955153;29;20047;-66
2022/10/12 06:33:24;;;;;;;32.85;29.42;;;17.40;99.90;;;;;;4953244;28;20020;-64
2022/10/12 06:35:50;;;;;;;29.40;26.50;;;17.40;99.90;;;;;;4952036;29;20110;-66
2022/10/12 06:38:16;;;;;;;28.30;25.30;;;17.40;99.90;;;;;;4934736;29;20139;-63
2022/10/12 06:40:42;;;;;;;28.58;25.73;;;17.50;99.90;;;;;;4951690;29;20083;-64
2022/10/12 06:43:08;;;;;;;29.10;26.00;;;17.50;99.90;;;;;;4950722;29;20035;-66
2022/10/12 06:45:34;;;;;;;29.30;26.45;;;17.50;99.90;;;;;;4955497;28;20063;-63
2022/10/12 06:48:00;;;;;;;28.30;25.48;;;17.50;99.90;;;;;;4947424;28;20035;-64
2022/10/12 06:50:25;;;;;;;27.35;24.50;;;17.60;99.90;;;;;;4951563;29;20367;-67
2022/10/12 06:52:52;;;;;;;27.65;24.95;;;17.70;99.90;;;;;;4960529;28;20023;-64
2022/10/12 06:55:18;;;;;;;28.15;25.20;;;17.80;99.90;;;;;;4955847;28;20078;-66
2022/10/12 06:57:43;;;;;;;27.75;25.05;;;18.20;99.90;;;;;;4967697;28;20023;-61
2022/10/12 07:00:10;;;;;;;24.52;22.23;;;18.60;99.90;;;;;;4953048;29;20458;-69
2022/10/12 07:02:36;;;;;;;30.67;27.60;;;19.10;99.90;;;;;;4948626;28;20051;-71
2022/10/12 07:05:02;;;;;;;29.95;26.88;;;19.00;99.90;;;;;;4939464;29;20082;-72
2022/10/12 07:07:32;;;;;;;26.88;24.17;;;19.00;99.90;;;;;;4933523;29;20027;-68
2022/10/12 07:09:58;;;;;;;24.05;21.73;;;19.10;99.90;;;;;;4932349;29;20020;-64
2022/10/12 07:12:24;;;;;;;24.73;22.35;;;19.90;99.90;;;;;;4943112;29;20026;-66
2022/10/12 07:14:49;;;;;;;23.13;20.92;;;20.50;99.90;;;;;;4956757;29;20035;-66
2022/10/12 07:17:16;;;;;;;29.50;25.58;;;20.40;99.90;;;;;;4958618;29;20031;-66
2022/10/12 07:19:42;;;;;;;31.52;28.27;;;20.30;99.90;;;;;;4958995;29;20023;-69
2022/10/12 07:22:07;;;;;;;28.85;26.08;;;20.20;99.90;;;;;;4958454;29;20030;-72
2022/10/12 07:24:36;;;;;;;26.40;23.90;;;20.30;99.90;;;;;;4954645;29;20474;-63
2022/10/12 07:27:03;;;;;;;24.00;21.85;;;20.30;99.90;;;;;;4956630;29;20039;-69
2022/10/12 07:29:30;;;;;;;24.70;22.40;;;20.20;99.90;;;;;;4956680;29;20229;-73
2022/10/12 07:31:57;;;;;;;24.23;21.88;;;20.20;99.90;;;;;;4957178;28;20055;-65
2022/10/12 07:34:23;;;;;;;24.98;22.58;;;20.40;99.90;;;;;;4956243;28;20647;-66
2022/10/12 07:36:49;;;;;;;32.08;28.73;;;20.40;99.90;;;;;;4956230;29;20031;-65
2022/10/12 07:39:15;;;;;;;38.20;34.20;;;20.20;99.90;;;;;;4956542;29;20057;-67
2022/10/12 07:41:40;;;;;;;33.53;30.13;;;20.20;99.90;;;;;;4958722;29;20039;-61
2022/10/12 07:44:06;;;;;;;36.53;32.88;;;20.40;99.90;;;;;;4956831;29;20581;-66
2022/10/12 07:46:32;;;;;;;36.17;32.30;;;20.30;99.90;;;;;;4949785;28;20045;-67
2022/10/12 07:48:57;;;;;;;35.80;32.28;;;20.40;99.90;;;;;;4953769;28;20049;-66
2022/10/12 07:51:23;;;;;;;34.97;31.38;;;20.40;99.90;;;;;;4954670;29;20059;-65
2022/10/12 07:53:49;;;;;;;30.95;27.83;;;21.30;99.90;;;;;;4946033;29;20537;-62
2022/10/12 07:56:15;;;;;;;28.40;25.70;;;21.80;99.90;;;;;;4955038;29;20086;-64
2022/10/12 07:58:46;;;;;;;26.27;23.60;;;22.60;99.90;;;;;;4950117;29;20035;-65
2022/10/12 08:01:12;;;;;;;22.25;20.25;;;23.20;99.90;;;;;;4954832;29;20015;-61
2022/10/12 08:03:38;;;;;;;23.77;21.45;;;24.40;95.20;;;;;;4956729;29;20031;-67
2022/10/12 08:06:11;;;;;;;28.00;25.17;;;24.60;94.00;;;;;;4954645;29;20156;-68
2022/10/12 08:08:39;;;;;;;27.02;24.33;;;25.20;86.10;;;;;;4955405;29;20073;-64
2022/10/12 08:11:06;;;;;;;27.17;24.40;;;25.60;83.20;;;;;;4939119;29;20549;-72
2022/10/12 08:13:33;;;;;;;25.77;23.17;;;26.00;75.00;;;;;;4956632;29;20042;-60
2022/10/12 08:15:59;;;;;;;21.15;19.25;;;25.80;73.70;;;;;;4956404;29;20425;-66
2022/10/12 08:18:25;;;;;;;21.15;19.33;;;25.20;74.40;;;;;;4952276;29;20105;-66
2022/10/12 08:20:51;;;;;;;19.70;17.95;;;24.30;75.10;;;;;;4953187;29;20121;-64
2022/10/12 08:23:17;;;;;;;17.75;16.05;;;24.00;83.70;;;;;;4955882;28;20035;-63
2022/10/12 08:25:51;;;;;;;18.92;17.13;;;24.60;84.50;;;;;;4955921;29;20561;-65
2022/10/12 08:28:16;;;;;;;17.27;15.77;;;24.70;78.30;;;;;;4953281;29;20066;-62
2022/10/12 08:30:42;;;;;;;18.40;16.70;;;24.20;80.70;;;;;;4954992;28;20130;-66
2022/10/12 08:33:08;;;;;;;18.15;16.45;;;23.80;83.10;;;;;;4944252;28;20390;-61
2022/10/12 08:35:36;;;;;;;19.10;17.15;;;23.30;88.50;;;;;;4952878;29;20023;-63
2022/10/12 08:38:02;;;;;;;16.95;15.35;;;23.00;90.90;;;;;;4955670;29;20061;-65
2022/10/12 08:40:35;;;;;;;19.40;17.60;;;22.80;92.80;;;;;;4953159;28;20168;-68
2022/10/12 08:43:10;;;;;;;19.63;17.75;;;22.50;94.60;;;;;;4938081;29;20066;-68
2022/10/12 08:45:57;;;;;;;17.85;16.25;;;22.30;96.30;;;;;;4949257;29;20028;-71
2022/10/12 08:48:32;;;;;;;16.63;15.23;;;22.20;99.90;;;;;;4946765;29;20029;-62
2022/10/12 08:51:13;;;;;;;19.42;17.63;;;22.10;99.90;;;;;;4953805;28;20027;-63
2022/10/12 08:54:06;;;;;;;21.33;19.13;;;22.10;99.90;;;;;;4953251;28;20028;-63
2022/10/12 08:56:34;;;;;;;20.27;18.35;;;22.20;99.10;;;;;;4937159;28;20485;-65
2022/10/12 08:59:02;;;;;;;20.80;18.77;;;22.10;99.70;;;;;;4949868;28;20110;-64
2022/10/12 09:01:37;;;;;;;21.38;19.48;;;22.10;98.40;;;;;;4952668;29;20035;-68
2022/10/12 09:04:40;;;;;;;20.65;18.83;;;22.20;99.90;;;;;;4948954;29;20039;-65
2022/10/12 09:07:17;;;;;;;21.63;19.63;;;22.50;99.50;;;;;;4951658;28;20422;-65
2022/10/12 09:10:10;;;;;;;19.67;17.88;;;22.60;98.30;;;;;;4955346;29;20029;-65
2022/10/12 09:13:00;;;;;;;21.35;19.35;;;22.80;99.80;;;;;;4948399;29;20146;-69
2022/10/12 09:15:55;;;;;;;28.48;25.45;;;22.90;99.70;;;;;;4948963;29;20057;-71
2022/10/12 09:18:30;;;;;;;21.63;19.60;;;22.70;99.80;;;;;;4946337;29;20110;-65
2022/10/12 09:20:57;;;;;;;22.08;19.98;;;22.50;99.50;;;;;;4955175;29;20031;-65
2022/10/12 09:23:37;;;;;;;21.67;19.65;;;22.50;99.60;;;;;;4952540;29;20508;-60
2022/10/12 09:26:16;;;;;;;19.48;17.67;;;22.50;99.90;;;;;;4954900;29;20031;-64
2022/10/12 09:28:43;;;;;;;20.83;18.83;;;22.50;99.60;;;;;;4951725;29;20466;-61
2022/10/12 09:31:26;;;;;;;17.90;16.30;;;22.60;97.70;;;;;;4935536;29;20066;-68
2022/10/12 09:33:56;;;;;;;19.80;18.10;;;22.80;96.40;;;;;;4949006;28;20031;-69
2022/10/12 09:36:24;;;;;;;21.15;19.10;;;22.80;97.20;;;;;;4933597;29;20273;-64
2022/10/12 09:38:51;;;;;;;20.23;18.33;;;22.80;99.50;;;;;;4948446;29;20396;-67
2022/10/12 09:45:15;;;;;;;20.20;18.30;;;23.00;95.40;;;;;;4934991;28;20055;-75
2022/10/12 09:47:41;;;;;;;19.50;17.70;;;23.30;97.20;;;;;;4945668;29;20040;-67
2022/10/12 09:50:08;;;;;;;18.92;17.17;;;23.60;99.80;;;;;;4947588;29;20024;-74
2022/10/12 09:52:34;;;;;;;20.05;18.17;;;23.60;95.60;;;;;;4950249;29;20087;-71
2022/10/12 09:55:03;;;;;;;17.38;15.85;;;23.70;94.00;;;;;;4949974;29;20058;-67
2022/10/12 09:57:34;;;;;;;20.00;18.20;;;23.70;93.40;;;;;;4948884;29;20035;-70
2022/10/12 10:00:05;;;;;;;22.13;20.02;;;23.90;90.30;;;;;;4948755;28;20090;-63
2022/10/12 10:02:33;;;;;;;22.20;20.25;;;23.90;82.60;;;;;;4951947;29;20046;-68
2022/10/12 10:05:25;;;;;;;20.85;19.05;;;23.70;86.50;;;;;;4952216;29;20039;-69
2022/10/12 10:08:33;;;;;;;;;;;;;;;;;;;;;
2022/10/12 10:11:00;;;;;;;19.65;17.95;;;23.60;90.50;;;;;;4929080;28;20045;-68
2022/10/12 10:13:30;;;;;;;18.73;17.13;;;23.80;86.20;;;;;;4965145;28;20023;-64
2022/10/12 10:16:09;;;;;;;20.52;18.63;;;23.90;84.30;;;;;;4941373;28;20110;-70
2022/10/12 10:18:42;;;;;;;18.77;17.08;;;23.90;78.50;;;;;;4951132;28;20027;-69
2022/10/12 10:21:11;;;;;;;17.00;15.50;;;23.80;84.70;;;;;;4947993;28;20490;-66
2022/10/12 10:24:05;;;;;;;17.23;15.73;;;23.90;81.80;;;;;;4948560;29;20498;-68
2022/10/12 10:27:25;;;;;;;16.02;14.55;;;24.20;81.40;;;;;;4946924;28;20134;-63
2022/10/12 10:30:23;;;;;;;17.38;15.82;;;24.60;88.80;;;;;;4908865;29;20024;-64
2022/10/12 10:33:14;;;;;;;16.83;15.38;;;24.80;77.10;;;;;;4911955;29;20050;-63
2022/10/12 10:35:51;;;;;;;16.75;15.35;;;24.90;72.30;;;;;;4939555;28;20111;-64
2022/10/12 10:38:16;;;;;;;16.88;15.38;;;24.80;72.00;;;;;;4940251;28;20088;-63
2022/10/12 10:40:49;;;;;;;15.93;14.63;;;24.70;71.10;;;;;;4951571;29;20438;-71
2022/10/12 10:43:22;;;;;;;15.90;14.60;;;24.90;66.20;;;;;;4954303;29;20078;-59
2022/10/12 10:45:52;;;;;;;14.73;13.52;;;25.00;70.70;;;;;;4952256;28;20090;-62
2022/10/12 10:48:21;;;;;;;15.02;13.75;;;25.20;68.30;;;;;;4952213;29;20390;-66
2022/10/12 10:50:59;;;;;;;14.98;13.63;;;25.40;71.00;;;;;;4952765;29;20081;-65
2022/10/12 10:53:29;;;;;;;13.55;12.45;;;25.60;67.60;;;;;;4954578;29;20106;-64
2022/10/12 10:56:00;;;;;;;14.63;13.43;;;25.90;69.80;;;;;;4951863;29;20478;-67
2022/10/12 10:58:32;;;;;;;14.85;13.57;;;25.80;65.10;;;;;;4946924;29;20051;-61
2022/10/12 11:01:05;;;;;;;13.10;11.90;;;25.60;64.80;;;;;;4959780;28;20059;-62
2022/10/12 11:03:39;;;;;;;13.18;12.15;;;25.60;64.00;;;;;;4959099;28;20031;-63
2022/10/12 11:06:22;;;;;;;14.65;13.45;;;25.50;64.10;;;;;;4958082;28;20043;-62
2022/10/12 11:08:50;;;;;;;18.20;13.75;;;25.60;63.70;;;;;;4963526;28;20038;-65
2022/10/12 11:11:21;;;;;;;34.75;17.95;;;25.60;62.20;;;;;;4957054;28;20035;-64
2022/10/12 11:14:02;;;;;;;28.95;16.60;;;25.70;61.80;;;;;;4957533;28;20027;-61
2022/10/12 11:17:00;;;;;;;20.33;16.02;;;25.90;61.30;;;;;;4956502;28;20042;-60
2022/10/12 11:19:41;;;;;;;16.63;15.13;;;25.80;61.90;;;;;;4919384;28;20038;-64
2022/10/12 11:22:20;;;;;;;17.10;15.47;;;25.60;61.80;;;;;;4943410;28;20043;-63
2022/10/12 11:25:06;;;;;;;20.23;15.60;;;25.20;61.00;;;;;;4954310;29;20023;-64
2022/10/12 11:27:38;;;;;;;15.18;13.77;;;25.20;62.60;;;;;;4935121;29;20036;-64
2022/10/12 11:30:23;;;;;;;14.80;13.50;;;25.40;62.30;;;;;;4952167;29;20023;-63
2022/10/12 11:33:00;;;;;;;20.88;13.77;;;25.70;62.70;;;;;;4950340;29;20038;-64
2022/10/12 11:35:35;;;;;;;15.48;13.98;;;25.80;63.80;;;;;;4950836;29;20035;-64
2022/10/12 11:38:22;;;;;;;12.60;11.50;;;26.00;66.40;;;;;;4949825;28;20474;-64
2022/10/12 11:40:53;;;;;;;12.63;11.52;;;26.20;64.20;;;;;;4948539;29;20039;-64
2022/10/12 11:43:26;;;;;;;12.00;11.00;;;26.50;62.80;;;;;;4949017;29;20445;-65
2022/10/12 11:45:56;;;;;;;11.00;10.10;;;26.80;59.90;;;;;;4948690;29;20035;-62
2022/10/12 11:48:49;;;;;;;10.65;9.85;;;26.70;58.90;;;;;;4951405;29;20490;-60
2022/10/12 11:51:15;;;;;;;10.95;10.05;;;26.40;58.60;;;;;;4952002;29;20023;-63
2022/10/12 11:53:58;;;;;;;9.77;9.07;;;26.40;58.60;;;;;;4952553;29;20126;-67
2022/10/12 11:56:33;;;;;;;10.38;9.57;;;26.40;60.70;;;;;;4951263;28;20740;-65
2022/10/12 11:59:15;;;;;;;10.23;9.32;;;26.50;59.00;;;;;;4956503;29;20035;-63
2022/10/12 12:02:04;;;;;;;9.35;8.65;;;26.70;61.40;;;;;;4956779;29;20034;-64
2022/10/12 12:04:35;;;;;;;8.60;7.80;;;26.70;58.30;;;;;;4953298;29;20106;-62
2022/10/12 12:07:22;;;;;;;7.93;7.32;;;26.70;58.00;;;;;;4951688;28;20023;-62
2022/10/12 12:09:48;;;;;;;8.88;8.18;;;26.60;58.10;;;;;;4933239;29;20516;-66
2022/10/12 12:12:24;;;;;;;9.35;8.55;;;26.30;58.50;;;;;;4934615;29;20023;-68
2022/10/12 12:14:53;;;;;;;8.13;7.53;;;26.20;58.40;;;;;;4945156;28;20027;-65
2022/10/12 12:17:18;;;;;;;8.07;7.47;;;26.00;57.90;;;;;;4950194;29;20227;-62
2022/10/12 12:19:45;;;;;;;8.20;7.50;;;25.90;57.60;;;;;;4950457;29;20562;-64
2022/10/12 12:22:22;;;;;;;8.30;7.70;;;25.80;58.90;;;;;;4952080;29;20098;-63
2022/10/12 12:25:03;;;;;;;8.13;7.53;;;25.80;58.60;;;;;;4932751;29;20023;-66
2022/10/12 12:27:51;;;;;;;8.52;7.93;;;25.80;59.40;;;;;;4947259;29;20374;-64
2022/10/12 12:30:16;;;;;;;7.72;7.13;;;25.80;57.40;;;;;;4951654;28;20451;-66
2022/10/12 12:32:53;;;;;;;8.15;7.40;;;25.70;57.00;;;;;;4952916;29;20027;-67
2022/10/12 12:35:29;;;;;;;8.32;7.63;;;25.70;57.20;;;;;;4952851;29;20055;-64
2022/10/12 12:38:21;;;;;;;7.80;7.20;;;25.60;57.40;;;;;;4956027;28;20496;-66
2022/10/12 12:40:56;;;;;;;7.38;6.88;;;25.40;57.00;;;;;;4953045;29;20060;-65
2022/10/12 12:43:27;;;;;;;7.55;6.95;;;25.30;58.20;;;;;;4953588;29;20031;-67
2022/10/12 12:45:58;;;;;;;7.50;7.00;;;25.20;58.10;;;;;;4953555;29;20031;-62
2022/10/12 12:48:47;;;;;;;8.48;7.82;;;25.00;59.30;;;;;;4953257;29;20110;-66
2022/10/12 12:51:17;;;;;;;8.48;7.78;;;24.90;59.90;;;;;;4941304;29;20046;-63
2022/10/12 12:53:55;;;;;;;8.52;7.90;;;24.90;60.70;;;;;;4954444;29;20114;-64